Time;durP1;ratioP1;P1;durP2;ratioP2;P2;SDS_P1;SDS_P2;PMS_P1;PMS_P2;Temp;Humidity;BMP_temperature;BMP_pressure;BME280_temperature;BME280_humidity;BME280_pressure;Samples;Min_cycle;Max_cycle;Signal;HPM_P1;HPM_P2
2022/08/07 00:01:06;;;;;;;0.00;0.00;;;15.60;71.90;;;;;;5031253;28;20115;-66
2022/08/07 00:03:32;;;;;;;0.00;0.00;;;15.60;71.90;;;;;;5034794;28;20045;-66
2022/08/07 00:05:58;;;;;;;0.00;0.00;;;15.60;72.10;;;;;;5035507;28;20045;-66
2022/08/07 00:08:23;;;;;;;0.00;0.00;;;15.60;72.40;;;;;;5035001;28;20143;-66
2022/08/07 00:10:52;;;;;;;0.00;0.00;;;15.60;72.40;;;;;;5034852;28;20446;-66
2022/08/07 00:13:20;;;;;;;0.03;0.03;;;15.60;72.50;;;;;;5034794;28;20103;-66
2022/08/07 00:15:46;;;;;;;0.00;0.00;;;15.60;72.70;;;;;;5035096;28;20727;-66
2022/08/07 00:18:21;;;;;;;0.00;0.00;;;15.60;72.70;;;;;;5034883;28;20402;-66
2022/08/07 00:20:50;;;;;;;0.00;0.00;;;15.60;73.70;;;;;;5034593;28;20037;-67
2022/08/07 00:23:16;;;;;;;0.00;0.00;;;15.60;73.70;;;;;;5034201;28;20045;-66
2022/08/07 00:25:42;;;;;;;0.00;0.00;;;15.60;73.40;;;;;;5035244;28;20490;-66
2022/08/07 00:28:08;;;;;;;0.00;0.00;;;15.50;73.40;;;;;;5026802;28;20136;-66
2022/08/07 00:30:33;;;;;;;0.00;0.00;;;15.50;73.30;;;;;;5034329;28;20037;-66
2022/08/07 00:33:00;;;;;;;0.00;0.00;;;15.50;73.70;;;;;;5033246;28;20041;-67
2022/08/07 00:35:27;;;;;;;0.00;0.00;;;15.50;73.60;;;;;;5034889;28;20033;-67
2022/08/07 00:37:53;;;;;;;0.00;0.00;;;15.40;73.80;;;;;;5034720;28;20083;-66
2022/08/07 00:40:18;;;;;;;0.00;0.00;;;15.40;73.60;;;;;;5034690;28;20183;-66
2022/08/07 00:42:44;;;;;;;0.00;0.00;;;15.40;74.00;;;;;;5034848;28;20057;-66
2022/08/07 00:45:11;;;;;;;0.00;0.00;;;15.40;73.80;;;;;;5031603;28;20076;-66
2022/08/07 00:47:37;;;;;;;0.00;0.00;;;15.40;73.70;;;;;;5031391;28;20053;-66
2022/08/07 00:50:04;;;;;;;0.00;0.00;;;15.40;73.70;;;;;;5030930;28;20045;-66
2022/08/07 00:52:30;;;;;;;0.00;0.00;;;15.40;73.60;;;;;;5031170;28;20045;-66
2022/08/07 00:54:55;;;;;;;0.00;0.00;;;15.40;73.70;;;;;;5030465;28;20049;-66
2022/08/07 00:57:22;;;;;;;0.00;0.00;;;15.30;73.80;;;;;;5029740;28;20041;-66
2022/08/07 00:59:48;;;;;;;0.00;0.00;;;15.30;73.90;;;;;;5031617;28;20099;-66
2022/08/07 01:02:13;;;;;;;0.00;0.00;;;15.30;74.00;;;;;;5031449;28;20041;-66
2022/08/07 01:04:39;;;;;;;0.00;0.00;;;15.30;74.00;;;;;;5027588;28;20467;-66
2022/08/07 01:07:05;;;;;;;0.00;0.00;;;15.30;74.10;;;;;;5011829;28;20038;-66
2022/08/07 01:09:32;;;;;;;0.00;0.00;;;15.20;74.40;;;;;;5027606;28;20123;-66
2022/08/07 01:11:58;;;;;;;0.00;0.00;;;15.30;75.20;;;;;;5031609;28;20042;-66
2022/08/07 01:14:25;;;;;;;0.00;0.00;;;15.30;75.30;;;;;;5030549;28;20040;-66
2022/08/07 01:16:52;;;;;;;0.00;0.00;;;15.20;74.80;;;;;;5031112;28;20037;-66
2022/08/07 01:19:19;;;;;;;0.00;0.00;;;15.20;74.90;;;;;;5031306;28;20110;-66
2022/08/07 01:21:47;;;;;;;0.00;0.00;;;15.30;75.00;;;;;;5031044;28;20033;-66
2022/08/07 01:24:15;;;;;;;0.00;0.00;;;15.30;75.10;;;;;;5028548;28;20044;-66
2022/08/07 01:26:41;;;;;;;0.03;0.03;;;15.30;75.00;;;;;;5030696;28;20037;-66
2022/08/07 01:29:07;;;;;;;0.00;0.00;;;15.30;74.70;;;;;;5030424;28;20045;-66
2022/08/07 01:31:33;;;;;;;0.00;0.00;;;15.30;74.40;;;;;;5030955;28;20095;-66
2022/08/07 01:34:00;;;;;;;0.00;0.00;;;15.30;74.40;;;;;;5029076;28;20494;-66
2022/08/07 01:36:27;;;;;;;0.00;0.00;;;15.30;74.70;;;;;;5031235;28;20053;-67
2022/08/07 01:38:54;;;;;;;0.00;0.00;;;15.30;74.60;;;;;;5030977;28;20045;-67
2022/08/07 01:41:21;;;;;;;0.00;0.00;;;15.30;74.50;;;;;;5030967;28;20050;-66
2022/08/07 01:43:48;;;;;;;0.00;0.00;;;15.30;74.50;;;;;;5029921;28;20562;-66
2022/08/07 01:46:14;;;;;;;0.00;0.00;;;15.20;74.40;;;;;;5030556;28;20049;-66
2022/08/07 01:51:12;;;;;;;0.00;0.00;;;15.30;74.90;;;;;;5029143;22;20057;-66
2022/08/07 01:53:41;;;;;;;0.00;0.00;;;15.30;75.30;;;;;;5036577;23;20061;-66
2022/08/07 01:56:13;;;;;;;0.00;0.00;;;15.30;75.10;;;;;;5030586;28;20049;-67
2022/08/07 01:58:42;;;;;;;;;;;15.30;75.10;;;;;;5031046;28;20498;-66
2022/08/07 02:01:12;;;;;;;0.00;0.00;;;15.30;74.90;;;;;;5036275;28;20493;-66
2022/08/07 02:03:43;;;;;;;0.00;0.00;;;15.30;75.10;;;;;;5032834;28;20045;-67
2022/08/07 02:06:14;;;;;;;0.00;0.00;;;15.30;75.30;;;;;;5013421;28;20410;-66
2022/08/07 02:08:42;;;;;;;0.10;0.10;;;15.20;75.10;;;;;;5015052;28;20399;-67
2022/08/07 02:11:09;;;;;;;0.00;0.00;;;15.20;75.30;;;;;;5032066;28;20052;-66
2022/08/07 02:13:37;;;;;;;0.00;0.00;;;15.20;75.70;;;;;;5032337;28;20072;-67
2022/08/07 02:16:05;;;;;;;0.00;0.00;;;15.20;75.50;;;;;;5030453;28;20098;-67
2022/08/07 02:18:34;;;;;;;0.00;0.00;;;15.10;75.60;;;;;;5030651;28;20786;-66
2022/08/07 02:21:03;;;;;;;0.00;0.00;;;15.10;75.70;;;;;;5029830;28;20045;-66
2022/08/07 02:23:30;;;;;;;0.08;0.08;;;15.10;75.90;;;;;;5030296;28;20046;-66
2022/08/07 02:25:57;;;;;;;0.00;0.00;;;15.10;76.00;;;;;;5030528;28;20041;-66
2022/08/07 02:28:27;;;;;;;0.00;0.00;;;15.10;76.00;;;;;;5050301;28;20044;-66
2022/08/07 02:30:54;;;;;;;0.00;0.00;;;15.10;76.00;;;;;;5033640;28;20037;-66
2022/08/07 02:33:24;;;;;;;0.00;0.00;;;15.00;76.10;;;;;;5029326;28;20044;-66
2022/08/07 02:35:52;;;;;;;0.00;0.00;;;15.10;76.10;;;;;;5031493;28;20152;-66
2022/08/07 02:38:20;;;;;;;0.00;0.00;;;15.00;76.00;;;;;;5029988;28;20041;-66
2022/08/07 02:40:46;;;;;;;0.00;0.00;;;15.00;76.50;;;;;;5025028;28;20395;-66
2022/08/07 02:43:14;;;;;;;0.08;0.08;;;15.00;76.90;;;;;;5049605;28;20051;-66
2022/08/07 02:45:41;;;;;;;0.00;0.00;;;15.00;76.50;;;;;;5036280;28;20042;-66
2022/08/07 02:48:07;;;;;;;0.00;0.00;;;15.00;76.80;;;;;;5046884;28;20060;-67
2022/08/07 02:50:38;;;;;;;0.00;0.00;;;15.00;76.50;;;;;;5043705;28;20042;-67
2022/08/07 02:53:10;;;;;;;0.00;0.00;;;15.00;76.30;;;;;;5029833;28;20053;-66
2022/08/07 02:55:41;;;;;;;0.00;0.00;;;15.00;76.20;;;;;;5031264;28;20045;-67
2022/08/07 02:58:11;;;;;;;0.00;0.00;;;15.00;76.30;;;;;;5011606;28;20048;-66
2022/08/07 03:00:39;;;;;;;0.00;0.00;;;15.00;76.30;;;;;;5016913;28;20573;-66
2022/08/07 03:03:07;;;;;;;0.00;0.00;;;14.90;76.30;;;;;;5049289;28;20489;-66
2022/08/07 03:05:35;;;;;;;0.00;0.00;;;14.90;76.30;;;;;;5013885;28;20674;-67
2022/08/07 03:08:03;;;;;;;0.00;0.00;;;14.80;76.70;;;;;;5028790;28;20140;-66
2022/08/07 03:10:28;;;;;;;0.00;0.00;;;14.80;76.90;;;;;;5029255;28;20045;-66
2022/08/07 03:12:55;;;;;;;0.00;0.00;;;14.80;76.70;;;;;;5029318;28;20521;-66
2022/08/07 03:15:21;;;;;;;0.00;0.00;;;14.70;76.30;;;;;;5037862;28;20569;-66
2022/08/07 03:17:47;;;;;;;0.10;0.10;;;14.70;76.50;;;;;;5049007;28;20489;-66
2022/08/07 03:20:13;;;;;;;0.00;0.00;;;14.80;76.80;;;;;;5043060;28;20045;-67
2022/08/07 03:22:41;;;;;;;0.00;0.00;;;14.80;76.70;;;;;;5049394;28;20124;-65
2022/08/07 03:25:07;;;;;;;0.00;0.00;;;14.80;76.60;;;;;;5045636;28;20064;-66
2022/08/07 03:27:33;;;;;;;0.00;0.00;;;14.70;76.60;;;;;;5048256;28;20041;-66
2022/08/07 03:29:59;;;;;;;0.00;0.00;;;14.70;76.60;;;;;;5038363;28;20053;-66
2022/08/07 03:32:31;;;;;;;0.00;0.00;;;14.70;76.50;;;;;;5029441;28;20056;-66
2022/08/07 03:34:59;;;;;;;0.00;0.00;;;14.70;76.50;;;;;;5037843;28;20037;-66
2022/08/07 03:37:26;;;;;;;0.00;0.00;;;14.70;76.80;;;;;;5049229;28;20049;-66
2022/08/07 03:39:52;;;;;;;0.00;0.00;;;14.60;76.80;;;;;;5039972;28;20096;-66
2022/08/07 03:42:19;;;;;;;0.00;0.00;;;14.60;76.60;;;;;;5047939;28;20041;-67
2022/08/07 03:44:45;;;;;;;0.00;0.00;;;14.60;76.30;;;;;;5046995;28;20049;-66
2022/08/07 03:47:12;;;;;;;0.00;0.00;;;14.60;76.20;;;;;;5030829;28;20091;-66
2022/08/07 03:49:38;;;;;;;0.00;0.00;;;14.60;76.40;;;;;;5029566;28;20045;-66
2022/08/07 03:52:06;;;;;;;0.00;0.00;;;14.60;76.40;;;;;;5037919;28;20060;-66
2022/08/07 03:54:33;;;;;;;0.00;0.00;;;14.60;76.30;;;;;;5028335;28;20054;-66
2022/08/07 03:57:00;;;;;;;0.00;0.00;;;14.60;76.30;;;;;;5041138;28;20049;-66
2022/08/07 03:59:26;;;;;;;0.00;0.00;;;14.60;76.20;;;;;;5029910;28;20522;-67
2022/08/07 04:01:54;;;;;;;0.00;0.00;;;14.60;76.00;;;;;;5042697;28;20045;-66
2022/08/07 04:04:21;;;;;;;0.00;0.00;;;14.60;76.00;;;;;;5023155;28;20045;-67
2022/08/07 04:06:48;;;;;;;0.00;0.00;;;14.60;76.40;;;;;;5036832;28;20060;-66
2022/08/07 04:09:14;;;;;;;0.00;0.00;;;14.60;76.50;;;;;;5028438;28;20042;-67
2022/08/07 04:11:41;;;;;;;0.00;0.00;;;14.60;76.40;;;;;;5030542;28;20069;-66
2022/08/07 04:14:07;;;;;;;0.00;0.00;;;14.60;76.10;;;;;;5035601;28;20931;-66
2022/08/07 04:16:33;;;;;;;0.00;0.00;;;14.60;76.20;;;;;;5039815;28;20045;-66
2022/08/07 04:19:03;;;;;;;0.00;0.00;;;14.60;76.40;;;;;;5028851;28;20037;-66
2022/08/07 04:21:28;;;;;;;0.00;0.00;;;14.60;76.40;;;;;;5039534;28;20048;-66
2022/08/07 04:23:54;;;;;;;0.00;0.00;;;14.50;76.80;;;;;;5025874;28;20041;-66
2022/08/07 04:26:20;;;;;;;0.00;0.00;;;14.50;77.00;;;;;;5051631;28;20401;-67
2022/08/07 04:28:46;;;;;;;0.00;0.00;;;14.50;77.20;;;;;;5052389;28;20060;-67
2022/08/07 04:31:11;;;;;;;0.10;0.10;;;14.40;77.30;;;;;;5038107;28;20691;-66
2022/08/07 04:33:39;;;;;;;0.00;0.00;;;14.50;77.40;;;;;;5031257;28;20101;-66
2022/08/07 04:36:07;;;;;;;0.00;0.00;;;14.40;77.40;;;;;;5033401;28;20047;-66
2022/08/07 04:38:34;;;;;;;0.00;0.00;;;14.40;77.30;;;;;;5049622;28;20055;-66
2022/08/07 04:41:00;;;;;;;0.00;0.00;;;14.40;77.40;;;;;;5036854;28;20803;-67
2022/08/07 04:43:31;;;;;;;0.10;0.10;;;14.40;77.20;;;;;;5032560;28;20037;-66
2022/08/07 04:46:30;;;;;;;0.00;0.00;;;14.40;77.30;;;;;;5033026;28;20759;-66
2022/08/07 04:49:11;;;;;;;0.00;0.00;;;14.40;77.40;;;;;;5034864;28;20561;-67
2022/08/07 04:51:45;;;;;;;0.00;0.00;;;14.40;77.40;;;;;;5029631;28;20453;-66
2022/08/07 04:54:23;;;;;;;0.00;0.00;;;14.40;77.60;;;;;;5029857;28;20557;-67
2022/08/07 04:56:56;;;;;;;0.00;0.00;;;14.40;77.70;;;;;;5035685;28;20069;-66
2022/08/07 05:00:03;;;;;;;0.00;0.00;;;14.40;77.60;;;;;;5020196;28;20132;-67
2022/08/07 05:02:40;;;;;;;0.00;0.00;;;14.50;77.60;;;;;;5030766;28;20060;-66
2022/08/07 05:05:17;;;;;;;0.00;0.00;;;14.60;77.30;;;;;;5030932;28;20132;-67
2022/08/07 05:07:59;;;;;;;0.00;0.00;;;14.50;77.30;;;;;;5022669;28;20052;-67
2022/08/07 05:10:27;;;;;;;0.00;0.00;;;14.60;77.50;;;;;;5030531;28;20072;-67
2022/08/07 05:13:02;;;;;;;0.00;0.00;;;14.60;77.30;;;;;;5030316;28;20061;-67
2022/08/07 05:15:36;;;;;;;0.00;0.00;;;14.60;77.20;;;;;;5013787;28;20156;-67
2022/08/07 05:18:07;;;;;;;0.00;0.00;;;14.70;77.40;;;;;;5030019;28;20062;-68
2022/08/07 05:20:39;;;;;;;0.00;0.00;;;14.70;77.50;;;;;;5030739;28;20037;-67
2022/08/07 05:23:11;;;;;;;0.00;0.00;;;14.80;77.30;;;;;;5030128;28;20526;-67
2022/08/07 05:25:41;;;;;;;0.00;0.00;;;14.80;77.10;;;;;;5029799;28;20414;-67
2022/08/07 05:28:07;;;;;;;0.00;0.00;;;14.90;77.20;;;;;;5029936;28;20049;-67
2022/08/07 05:30:35;;;;;;;0.00;0.00;;;14.90;77.00;;;;;;5029615;28;20044;-67
2022/08/07 05:33:01;;;;;;;0.00;0.00;;;15.00;76.70;;;;;;5029843;28;20045;-67
2022/08/07 05:35:27;;;;;;;0.00;0.00;;;15.00;76.40;;;;;;5030557;28;20041;-66
2022/08/07 05:37:53;;;;;;;0.00;0.00;;;15.00;76.30;;;;;;5030050;28;20495;-67
2022/08/07 05:40:20;;;;;;;0.00;0.00;;;15.10;76.50;;;;;;5030021;28;20077;-67
2022/08/07 05:42:46;;;;;;;0.10;0.10;;;15.10;76.20;;;;;;5030037;28;20041;-67
2022/08/07 05:45:12;;;;;;;0.08;0.08;;;15.20;76.20;;;;;;5030389;28;20243;-67
2022/08/07 05:47:38;;;;;;;0.00;0.00;;;15.20;76.30;;;;;;5030074;28;20050;-70
2022/08/07 05:50:05;;;;;;;0.00;0.00;;;15.50;79.20;;;;;;5029273;28;20037;-66
2022/08/07 05:52:31;;;;;;;0.00;0.00;;;15.80;77.20;;;;;;5030540;28;20565;-66
2022/08/07 05:54:57;;;;;;;0.00;0.00;;;15.90;75.70;;;;;;5029481;28;20057;-66
2022/08/07 05:57:23;;;;;;;0.10;0.10;;;15.90;75.10;;;;;;5029900;28;20080;-66
2022/08/07 05:59:49;;;;;;;0.00;0.00;;;15.90;74.80;;;;;;5043429;28;20119;-67
2022/08/07 06:02:18;;;;;;;0.00;0.00;;;16.00;74.40;;;;;;5031695;28;20061;-66
2022/08/07 06:04:51;;;;;;;0.00;0.00;;;15.90;74.10;;;;;;5024394;28;20082;-66
2022/08/07 06:07:17;;;;;;;0.00;0.00;;;15.90;73.90;;;;;;5025251;28;20415;-66
2022/08/07 06:09:43;;;;;;;0.00;0.00;;;15.90;73.90;;;;;;5029601;28;20136;-66
2022/08/07 06:12:10;;;;;;;0.00;0.00;;;16.00;74.00;;;;;;5026018;28;20549;-66
2022/08/07 06:14:36;;;;;;;0.08;0.08;;;16.00;74.20;;;;;;5029436;28;20034;-66
2022/08/07 06:17:03;;;;;;;0.00;0.00;;;16.00;74.20;;;;;;5029769;28;20484;-66
2022/08/07 06:19:28;;;;;;;0.00;0.00;;;16.00;74.20;;;;;;5030197;28;20041;-66
2022/08/07 06:21:55;;;;;;;0.00;0.00;;;16.20;74.30;;;;;;5029596;28;20045;-66
2022/08/07 06:24:21;;;;;;;0.00;0.00;;;16.20;74.30;;;;;;5029287;28;20449;-67
2022/08/07 06:26:46;;;;;;;0.00;0.00;;;16.30;74.30;;;;;;5028947;28;20107;-66
2022/08/07 06:29:12;;;;;;;0.00;0.00;;;16.30;74.40;;;;;;5029494;28;20183;-66
2022/08/07 06:31:38;;;;;;;0.00;0.00;;;16.40;74.40;;;;;;5029730;28;20637;-67
2022/08/07 06:34:03;;;;;;;0.00;0.00;;;16.40;74.70;;;;;;5029314;28;20046;-67
2022/08/07 06:36:29;;;;;;;0.00;0.00;;;16.40;74.50;;;;;;5024343;28;20520;-67
2022/08/07 06:38:55;;;;;;;0.00;0.00;;;16.50;74.60;;;;;;5028327;28;20633;-66
2022/08/07 06:41:30;;;;;;;0.20;0.20;;;16.50;74.50;;;;;;5028660;28;20045;-67
2022/08/07 06:43:57;;;;;;;0.00;0.00;;;16.50;74.60;;;;;;5028631;28;20410;-67
2022/08/07 06:46:23;;;;;;;0.00;0.00;;;16.60;74.50;;;;;;5022355;28;20559;-68
2022/08/07 06:48:49;;;;;;;0.10;0.10;;;16.60;74.50;;;;;;5033764;28;20045;-67
2022/08/07 06:51:19;;;;;;;0.00;0.00;;;16.60;74.10;;;;;;5011969;28;20053;-67
2022/08/07 06:53:46;;;;;;;0.00;0.00;;;16.60;73.90;;;;;;5032322;28;20041;-68
2022/08/07 06:56:13;;;;;;;0.00;0.00;;;16.60;73.50;;;;;;5029322;28;20573;-67
2022/08/07 06:58:40;;;;;;;0.00;0.00;;;16.70;73.20;;;;;;5034962;28;20557;-67
2022/08/07 07:01:08;;;;;;;0.00;0.00;;;16.70;73.20;;;;;;5011462;28;20041;-67
2022/08/07 07:03:38;;;;;;;0.10;0.10;;;16.80;72.90;;;;;;5019693;28;20045;-67
2022/08/07 07:06:05;;;;;;;0.00;0.00;;;16.80;72.60;;;;;;5030997;28;20034;-67
2022/08/07 07:08:30;;;;;;;0.00;0.00;;;16.90;72.20;;;;;;5038229;28;20052;-66
2022/08/07 07:10:56;;;;;;;0.00;0.00;;;17.00;71.90;;;;;;5042569;28;20509;-67
2022/08/07 07:13:35;;;;;;;0.00;0.00;;;17.00;72.10;;;;;;5041891;28;20044;-67
2022/08/07 07:16:06;;;;;;;0.00;0.00;;;17.00;71.90;;;;;;5022069;28;20041;-67
2022/08/07 07:18:45;;;;;;;0.00;0.00;;;17.10;71.60;;;;;;5044155;28;20134;-67
2022/08/07 07:21:22;;;;;;;0.00;0.00;;;17.10;70.80;;;;;;5027753;28;20041;-67
2022/08/07 07:23:48;;;;;;;0.30;0.30;;;17.20;71.10;;;;;;5042385;28;20390;-67
2022/08/07 07:26:17;;;;;;;0.00;0.00;;;17.30;70.90;;;;;;5031015;28;20041;-66
2022/08/07 07:28:58;;;;;;;0.00;0.00;;;17.30;70.60;;;;;;5019417;28;20445;-66
2022/08/07 07:31:31;;;;;;;0.00;0.00;;;17.40;70.30;;;;;;5019965;28;20050;-67
2022/08/07 07:34:02;;;;;;;0.00;0.00;;;17.40;70.40;;;;;;5045276;28;20410;-66
2022/08/07 07:36:28;;;;;;;0.00;0.00;;;17.50;70.10;;;;;;5031097;28;20121;-66
2022/08/07 07:38:54;;;;;;;0.00;0.00;;;17.80;71.10;;;;;;5031808;28;20291;-68
2022/08/07 07:41:22;;;;;;;0.00;0.00;;;17.80;68.90;;;;;;5028226;28;20053;-67
2022/08/07 07:43:51;;;;;;;0.00;0.00;;;17.90;68.90;;;;;;5010326;28;20068;-67
2022/08/07 07:46:17;;;;;;;0.00;0.00;;;17.90;68.90;;;;;;5028503;28;20050;-67
2022/08/07 07:48:46;;;;;;;0.00;0.00;;;17.90;68.40;;;;;;5028548;28;20049;-67
2022/08/07 07:51:13;;;;;;;0.00;0.00;;;17.90;68.30;;;;;;5029354;28;20687;-67
2022/08/07 07:53:43;;;;;;;0.00;0.00;;;17.90;68.60;;;;;;5029522;28;20057;-67
2022/08/07 07:56:11;;;;;;;0.00;0.00;;;18.00;68.40;;;;;;5032817;28;20048;-67
2022/08/07 07:58:38;;;;;;;0.00;0.00;;;18.10;69.00;;;;;;5032881;28;20052;-67
2022/08/07 08:01:05;;;;;;;0.00;0.00;;;18.10;69.10;;;;;;5032036;28;20065;-67
2022/08/07 08:03:34;;;;;;;0.00;0.00;;;18.10;68.80;;;;;;5027402;28;20034;-67
2022/08/07 08:06:00;;;;;;;0.00;0.00;;;18.10;68.20;;;;;;5027343;28;20513;-67
2022/08/07 08:08:29;;;;;;;0.00;0.00;;;18.10;68.70;;;;;;5031960;28;20041;-66
2022/08/07 08:10:56;;;;;;;0.05;0.05;;;18.10;68.70;;;;;;5012967;28;20049;-67
2022/08/07 08:13:25;;;;;;;0.00;0.00;;;18.20;68.30;;;;;;5013091;28;20896;-67
2022/08/07 08:15:51;;;;;;;0.00;0.00;;;18.20;67.90;;;;;;5030902;28;20052;-67
2022/08/07 08:18:18;;;;;;;0.00;0.00;;;18.20;68.30;;;;;;4998530;28;20548;-67
2022/08/07 08:20:46;;;;;;;0.00;0.00;;;18.20;67.80;;;;;;5014192;28;20456;-67
2022/08/07 08:28:49;;;;;;;0.00;0.00;;;18.30;67.50;;;;;;5032358;28;20056;-67
2022/08/07 08:31:24;;;;;;;0.00;0.00;;;18.30;67.20;;;;;;5031406;28;20739;-67
2022/08/07 08:33:53;;;;;;;0.00;0.00;;;18.30;67.30;;;;;;5032452;28;20414;-67
2022/08/07 08:36:22;;;;;;;0.00;0.00;;;18.30;66.10;;;;;;5030813;28;20077;-67
2022/08/07 08:38:49;;;;;;;0.00;0.00;;;18.40;67.30;;;;;;5032297;28;20049;-67
2022/08/07 08:41:44;;;;;;;0.10;0.10;;;18.50;67.40;;;;;;5026083;28;20049;-67
2022/08/07 08:44:24;;;;;;;0.05;0.05;;;18.50;66.70;;;;;;5026255;28;20037;-67
2022/08/07 08:47:13;;;;;;;0.00;0.00;;;18.60;67.30;;;;;;5032125;28;20045;-66
2022/08/07 08:50:02;;;;;;;0.05;0.05;;;18.60;66.40;;;;;;5030762;28;20052;-67
2022/08/07 08:52:33;;;;;;;0.30;0.30;;;18.70;66.90;;;;;;5020821;28;20057;-67
2022/08/07 08:55:22;;;;;;;0.00;0.00;;;18.70;66.00;;;;;;5031793;28;20057;-66
2022/08/07 08:58:32;;;;;;;0.00;0.00;;;18.80;66.30;;;;;;5030564;28;20037;-66
2022/08/07 09:01:14;;;;;;;0.00;0.00;;;19.00;66.60;;;;;;4994213;28;20042;-66
2022/08/07 09:04:02;;;;;;;0.32;0.32;;;19.10;66.10;;;;;;4989925;28;20528;-66
2022/08/07 09:07:00;;;;;;;0.00;0.00;;;19.30;65.30;;;;;;5005212;28;20049;-66
2022/08/07 09:10:00;;;;;;;0.00;0.00;;;19.40;65.00;;;;;;5019945;28;20081;-67
2022/08/07 09:13:05;;;;;;;0.00;0.00;;;19.40;62.90;;;;;;5023134;28;20132;-66
2022/08/07 09:15:57;;;;;;;0.00;0.00;;;19.50;64.40;;;;;;5022605;28;20076;-66
2022/08/07 09:18:26;;;;;;;;;;;19.50;64.50;;;;;;5017934;28;20081;-67
2022/08/07 09:20:55;;;;;;;0.00;0.00;;;19.60;65.30;;;;;;5011742;28;20378;-66
2022/08/07 09:23:31;;;;;;;0.00;0.00;;;19.70;65.00;;;;;;5022532;28;20045;-67
2022/08/07 09:26:09;;;;;;;0.00;0.00;;;19.80;65.30;;;;;;5023727;28;20069;-67
2022/08/07 09:28:39;;;;;;;0.00;0.00;;;19.90;63.10;;;;;;5027158;28;20084;-67
2022/08/07 09:31:24;;;;;;;0.00;0.00;;;20.10;63.80;;;;;;5027479;28;20041;-67
2022/08/07 09:34:09;;;;;;;0.00;0.00;;;20.10;63.50;;;;;;5026489;28;20038;-67
2022/08/07 09:37:00;;;;;;;0.00;0.00;;;20.10;61.30;;;;;;5020279;28;20050;-67
2022/08/07 09:39:50;;;;;;;0.00;0.00;;;20.00;62.30;;;;;;5020985;28;20049;-66
2022/08/07 09:42:48;;;;;;;0.00;0.00;;;20.00;62.40;;;;;;5019364;28;20038;-66
2022/08/07 09:45:44;;;;;;;0.28;0.20;;;19.90;62.30;;;;;;5024510;28;20045;-67
2022/08/07 09:48:40;;;;;;;0.00;0.00;;;19.80;61.70;;;;;;5021121;28;20088;-66
2022/08/07 09:51:30;;;;;;;0.00;0.00;;;19.70;60.50;;;;;;5030077;28;20045;-67
2022/08/07 09:54:00;;;;;;;0.00;0.00;;;19.70;61.50;;;;;;5006818;28;20046;-66
2022/08/07 09:57:05;;;;;;;0.00;0.00;;;19.70;61.90;;;;;;5012360;28;20120;-67
2022/08/07 10:00:08;;;;;;;0.00;0.00;;;19.70;62.70;;;;;;5021171;28;20054;-67
2022/08/07 10:02:55;;;;;;;0.17;0.17;;;19.70;63.50;;;;;;5010685;28;20037;-67
2022/08/07 10:05:37;;;;;;;0.00;0.00;;;19.60;63.90;;;;;;5010592;28;20495;-67
2022/08/07 10:08:31;;;;;;;0.00;0.00;;;19.50;63.70;;;;;;5011950;28;20164;-67
2022/08/07 10:11:45;;;;;;;0.13;0.13;;;19.30;63.30;;;;;;5030253;28;20045;-67
2022/08/07 10:14:26;;;;;;;0.00;0.00;;;19.50;63.80;;;;;;5005084;28;20528;-67
2022/08/07 10:17:29;;;;;;;0.13;0.13;;;19.70;63.60;;;;;;5030029;28;20089;-67
2022/08/07 10:20:18;;;;;;;0.98;0.98;;;20.00;64.00;;;;;;5029756;28;20041;-66
2022/08/07 10:22:44;;;;;;;0.00;0.00;;;20.10;62.50;;;;;;5015596;28;20132;-66
2022/08/07 10:25:23;;;;;;;0.00;0.00;;;20.30;62.90;;;;;;5026142;28;20180;-66
2022/08/07 10:28:08;;;;;;;0.25;0.25;;;20.50;61.70;;;;;;5029973;28;20105;-67
2022/08/07 10:31:01;;;;;;;0.10;0.10;;;20.40;60.10;;;;;;5029508;28;20044;-67
2022/08/07 10:33:38;;;;;;;0.22;0.22;;;20.30;61.20;;;;;;5024565;28;20188;-67
2022/08/07 10:36:28;;;;;;;0.00;0.00;;;20.50;61.30;;;;;;5029868;28;20041;-67
2022/08/07 10:39:01;;;;;;;0.00;0.00;;;20.50;61.50;;;;;;5029263;28;20069;-67
2022/08/07 10:41:42;;;;;;;0.10;0.10;;;20.70;60.10;;;;;;5030105;28;20390;-67
2022/08/07 10:44:36;;;;;;;0.00;0.00;;;20.80;59.90;;;;;;5030103;28;20046;-67
2022/08/07 10:47:30;;;;;;;0.00;0.00;;;21.10;60.50;;;;;;5029266;28;20086;-66
2022/08/07 10:50:13;;;;;;;0.00;0.00;;;21.30;60.70;;;;;;5009693;28;20045;-66
2022/08/07 10:52:51;;;;;;;0.00;0.00;;;21.40;57.80;;;;;;5016644;28;20052;-67
2022/08/07 10:55:25;;;;;;;0.85;0.85;;;21.30;57.00;;;;;;5019441;28;20524;-67
2022/08/07 10:58:16;;;;;;;0.00;0.00;;;21.00;56.40;;;;;;5021302;28;20053;-67
2022/08/07 11:00:54;;;;;;;0.00;0.00;;;20.90;57.90;;;;;;5015720;28;20037;-67
2022/08/07 11:03:33;;;;;;;0.00;0.00;;;20.90;58.60;;;;;;5016055;28;20038;-67
2022/08/07 11:06:12;;;;;;;0.20;0.20;;;20.90;57.80;;;;;;5015411;28;20038;-67
2022/08/07 11:09:11;;;;;;;0.00;0.00;;;20.70;58.40;;;;;;5015274;28;20125;-67
2022/08/07 11:12:01;;;;;;;0.00;0.00;;;20.50;57.70;;;;;;5021002;28;20076;-67
2022/08/07 11:14:39;;;;;;;0.10;0.10;;;20.40;59.50;;;;;;4998023;28;20068;-67
2022/08/07 11:17:13;;;;;;;0.08;0.08;;;20.30;59.00;;;;;;5016767;28;20103;-66
2022/08/07 11:19:56;;;;;;;2.50;1.65;;;20.20;58.20;;;;;;5017790;28;20042;-66
2022/08/07 11:22:43;;;;;;;0.00;0.00;;;20.10;58.70;;;;;;5016293;28;20034;-67
2022/08/07 11:25:15;;;;;;;0.00;0.00;;;20.10;58.40;;;;;;5019034;28;20037;-67
2022/08/07 11:27:44;;;;;;;0.00;0.00;;;20.00;58.40;;;;;;5006023;28;20045;-67
2022/08/07 11:30:17;;;;;;;0.00;0.00;;;20.10;58.70;;;;;;5015318;28;20487;-67
2022/08/07 11:32:44;;;;;;;0.00;0.00;;;20.30;58.10;;;;;;5018980;28;20048;-66
2022/08/07 11:35:18;;;;;;;0.00;0.00;;;20.50;58.90;;;;;;4999354;28;20038;-67
2022/08/07 11:38:32;;;;;;;0.00;0.00;;;20.60;57.30;;;;;;5001866;28;20045;-67
2022/08/07 11:41:03;;;;;;;0.00;0.00;;;20.80;55.80;;;;;;5022382;28;20076;-67
2022/08/07 11:43:33;;;;;;;0.00;0.00;;;20.90;52.90;;;;;;5026458;28;20073;-67
2022/08/07 11:46:27;;;;;;;0.00;0.00;;;21.00;54.70;;;;;;5028760;28;20079;-66
2022/08/07 11:49:16;;;;;;;0.00;0.00;;;21.10;53.50;;;;;;5028911;28;20049;-67
2022/08/07 11:51:47;;;;;;;0.08;0.08;;;21.20;54.10;;;;;;5029055;28;20045;-67
2022/08/07 11:54:37;;;;;;;0.00;0.00;;;21.10;53.70;;;;;;5029283;28;20080;-67
2022/08/07 11:57:18;;;;;;;0.00;0.00;;;21.10;52.90;;;;;;5028817;28;20053;-66
2022/08/07 12:00:04;;;;;;;0.00;0.00;;;21.10;53.60;;;;;;5028766;28;20107;-67
2022/08/07 12:02:49;;;;;;;0.00;0.00;;;21.00;51.70;;;;;;5028841;28;20049;-67
2022/08/07 12:05:23;;;;;;;0.00;0.00;;;21.20;53.10;;;;;;5029234;28;20053;-67
2022/08/07 12:08:04;;;;;;;0.00;0.00;;;21.30;51.30;;;;;;5028846;28;20046;-66
2022/08/07 12:11:08;;;;;;;0.00;0.00;;;21.30;51.10;;;;;;5029048;28;20073;-67
2022/08/07 12:13:57;;;;;;;0.00;0.00;;;21.50;51.80;;;;;;5029055;28;20053;-67
2022/08/07 12:16:33;;;;;;;0.00;0.00;;;21.60;51.20;;;;;;5028696;28;20407;-66
2022/08/07 12:19:43;;;;;;;0.00;0.00;;;21.70;52.40;;;;;;5028345;28;20096;-66
2022/08/07 12:22:37;;;;;;;0.00;0.00;;;21.80;50.60;;;;;;5028564;28;20077;-66
2022/08/07 12:28:08;;;;;;;0.00;0.00;;;21.80;49.40;;;;;;5028451;28;20061;-66
2022/08/07 12:30:37;;;;;;;0.00;0.00;;;21.80;48.60;;;;;;5022889;28;20486;-66
2022/08/07 12:33:11;;;;;;;0.00;0.00;;;21.90;47.70;;;;;;5027993;28;20045;-66
2022/08/07 12:35:39;;;;;;;0.00;0.00;;;22.00;48.50;;;;;;5028588;28;20045;-65
2022/08/07 12:38:07;;;;;;;0.00;0.00;;;22.10;48.40;;;;;;5028488;28;20081;-65
2022/08/07 12:40:36;;;;;;;0.00;0.00;;;22.20;47.20;;;;;;5029201;28;20106;-66
2022/08/07 12:43:06;;;;;;;0.00;0.00;;;22.40;47.00;;;;;;5025982;28;20479;-65
2022/08/07 12:45:46;;;;;;;0.47;0.32;;;22.50;46.10;;;;;;5031423;28;20053;-65
2022/08/07 12:48:38;;;;;;;0.00;0.00;;;22.60;46.00;;;;;;5013673;28;20116;-65
2022/08/07 12:51:11;;;;;;;0.00;0.00;;;22.70;47.80;;;;;;5024734;28;20049;-65
2022/08/07 12:53:44;;;;;;;0.00;0.00;;;22.50;47.70;;;;;;5023143;28;20045;-65
2022/08/07 12:56:26;;;;;;;0.00;0.00;;;22.30;47.60;;;;;;5031556;28;20111;-65
2022/08/07 12:58:51;;;;;;;;;;;22.20;48.00;;;;;;5031842;28;20054;-65
2022/08/07 13:01:49;;;;;;;0.00;0.00;;;22.00;49.10;;;;;;5029883;28;19986;-65
2022/08/07 13:04:28;;;;;;;0.00;0.00;;;21.90;51.20;;;;;;5031250;28;20042;-65
2022/08/07 13:07:21;;;;;;;0.00;0.00;;;21.60;52.30;;;;;;5018641;28;20041;-65
2022/08/07 13:10:00;;;;;;;0.40;0.28;;;21.50;51.90;;;;;;5000863;28;20084;-66
2022/08/07 13:12:52;;;;;;;0.00;0.00;;;21.30;51.80;;;;;;5031546;28;20049;-65
2022/08/07 13:15:41;;;;;;;0.30;0.30;;;21.20;53.30;;;;;;5031651;28;20085;-65
2022/08/07 13:18:25;;;;;;;0.00;0.00;;;21.10;53.80;;;;;;5031553;28;20499;-65
2022/08/07 13:21:01;;;;;;;0.00;0.00;;;21.10;54.40;;;;;;5030427;28;20944;-65
2022/08/07 13:23:39;;;;;;;0.00;0.00;;;21.00;53.70;;;;;;5026948;28;20079;-65
2022/08/07 13:26:13;;;;;;;0.00;0.00;;;21.20;54.30;;;;;;5012835;28;20128;-66
2022/08/07 13:28:51;;;;;;;0.00;0.00;;;21.50;53.10;;;;;;5031029;28;20110;-66
2022/08/07 13:31:23;;;;;;;0.00;0.00;;;21.80;53.10;;;;;;5030367;28;20129;-66